Time;durP1;ratioP1;P1;durP2;ratioP2;P2;SDS_P1;SDS_P2;PMS_P1;PMS_P2;Temp;Humidity;BMP_temperature;BMP_pressure;BME280_temperature;BME280_humidity;BME280_pressure;Samples;Min_cycle;Max_cycle;Signal;HPM_P1;HPM_P2
2023/06/11 00:00:36;;;;;;;18.83;7.45;;;20.60;99.90;;;;;;5048824;28;20057;-59
2023/06/11 00:03:04;;;;;;;16.40;7.93;;;20.60;99.90;;;;;;5048032;28;20048;-58
2023/06/11 00:05:31;;;;;;;23.73;9.35;;;20.50;99.90;;;;;;5048726;28;20315;-58
2023/06/11 00:08:02;;;;;;;21.45;7.55;;;20.50;99.90;;;;;;5048442;28;20052;-58
2023/06/11 00:10:29;;;;;;;23.55;7.80;;;20.50;99.90;;;;;;5049668;28;20052;-58
2023/06/11 00:12:55;;;;;;;26.75;8.00;;;20.50;99.90;;;;;;5047817;28;20037;-59
2023/06/11 00:15:22;;;;;;;20.30;8.65;;;20.50;99.90;;;;;;5049725;28;20622;-55
2023/06/11 00:17:49;;;;;;;20.85;8.40;;;20.40;99.90;;;;;;5050085;28;20483;-58
2023/06/11 00:20:16;;;;;;;21.25;7.63;;;20.40;99.90;;;;;;5050568;28;20052;-57
2023/06/11 00:22:43;;;;;;;22.08;7.10;;;20.30;99.90;;;;;;5050129;28;20064;-58
2023/06/11 00:25:11;;;;;;;23.67;8.13;;;20.20;99.90;;;;;;5049816;28;20543;-59
2023/06/11 00:27:39;;;;;;;27.73;7.43;;;20.10;99.90;;;;;;5050010;28;20053;-58
2023/06/11 00:30:07;;;;;;;18.00;7.32;;;20.00;99.90;;;;;;5032127;28;20037;-58
2023/06/11 00:32:35;;;;;;;22.23;9.60;;;19.90;99.90;;;;;;5032099;28;20045;-58
2023/06/11 00:35:06;;;;;;;28.63;8.70;;;19.80;99.90;;;;;;5049445;28;20091;-58
2023/06/11 00:37:35;;;;;;;20.13;8.60;;;19.90;99.90;;;;;;5049794;28;20103;-57
2023/06/11 00:40:03;;;;;;;16.65;7.75;;;19.90;99.90;;;;;;5049690;28;20072;-58
2023/06/11 00:42:33;;;;;;;20.92;8.80;;;19.90;99.90;;;;;;4690096;28;10000370;-58
2023/06/11 00:45:01;;;;;;;20.80;8.27;;;20.00;99.90;;;;;;5028768;28;20049;-58
2023/06/11 00:47:28;;;;;;;19.77;8.32;;;19.90;99.90;;;;;;5049529;28;20510;-56
2023/06/11 00:49:55;;;;;;;18.98;7.78;;;19.90;99.90;;;;;;5048571;28;20117;-57
2023/06/11 00:52:22;;;;;;;20.27;8.43;;;19.90;99.90;;;;;;5031942;28;20044;-57
2023/06/11 00:54:49;;;;;;;24.15;8.65;;;19.90;99.90;;;;;;5049120;28;20052;-56
2023/06/11 00:57:17;;;;;;;20.90;8.40;;;19.80;99.90;;;;;;5050195;28;20049;-57
2023/06/11 00:59:48;;;;;;;20.00;9.05;;;19.80;99.90;;;;;;5050559;28;20044;-55
2023/06/11 01:02:21;;;;;;;19.95;7.57;;;19.80;99.90;;;;;;5049732;28;20084;-57
2023/06/11 01:04:51;;;;;;;23.10;8.27;;;19.80;99.90;;;;;;5031257;28;20392;-57
2023/06/11 01:07:18;;;;;;;24.27;9.98;;;19.70;99.90;;;;;;5049271;28;20045;-57
2023/06/11 01:09:45;;;;;;;17.83;8.98;;;19.70;99.90;;;;;;5047639;28;20048;-58
2023/06/11 01:12:12;;;;;;;24.40;8.63;;;19.70;99.90;;;;;;5049220;28;20045;-57
2023/06/11 01:14:39;;;;;;;16.00;8.57;;;19.70;99.90;;;;;;5047329;28;20748;-58
2023/06/11 01:17:15;;;;;;;21.00;9.27;;;19.60;99.90;;;;;;5048885;28;20041;-58
2023/06/11 01:19:45;;;;;;;18.05;8.52;;;19.40;99.90;;;;;;5030890;28;20055;-60
2023/06/11 01:22:18;;;;;;;24.60;8.95;;;19.40;99.90;;;;;;5048996;28;20053;-57
2023/06/11 01:25:10;;;;;;;23.27;10.40;;;19.40;99.90;;;;;;5047378;28;20048;-55
2023/06/11 01:27:43;;;;;;;16.27;8.50;;;19.40;99.90;;;;;;5048587;28;20044;-57
2023/06/11 01:30:17;;;;;;;19.93;8.07;;;19.30;99.90;;;;;;5048397;28;20485;-55
2023/06/11 01:32:45;;;;;;;21.95;8.18;;;19.20;99.90;;;;;;5049049;28;20318;-56
2023/06/11 01:35:12;;;;;;;18.60;8.20;;;19.10;99.90;;;;;;5046802;28;20488;-57
2023/06/11 01:37:44;;;;;;;21.48;9.43;;;19.10;99.90;;;;;;5048743;28;20049;-58
2023/06/11 01:40:13;;;;;;;23.83;10.00;;;19.10;99.90;;;;;;5048335;28;20052;-58
2023/06/11 01:42:40;;;;;;;20.73;8.27;;;19.10;99.90;;;;;;5048242;28;20049;-56
2023/06/11 01:45:07;;;;;;;21.30;8.90;;;19.10;99.90;;;;;;5048165;28;20076;-57
2023/06/11 01:47:36;;;;;;;17.90;7.93;;;19.10;99.90;;;;;;5048320;28;20175;-57
2023/06/11 01:50:04;;;;;;;27.25;9.70;;;19.00;99.90;;;;;;5048622;28;20137;-57
2023/06/11 01:52:31;;;;;;;21.23;8.10;;;19.00;99.90;;;;;;5048419;28;20049;-57
2023/06/11 01:54:58;;;;;;;17.60;8.52;;;19.00;99.90;;;;;;5048122;28;20052;-55
2023/06/11 01:57:25;;;;;;;22.13;9.13;;;19.00;99.90;;;;;;5046981;28;20045;-54
2023/06/11 01:59:51;;;;;;;20.05;9.13;;;18.90;99.90;;;;;;5030577;28;20051;-58
2023/06/11 02:02:18;;;;;;;17.20;8.15;;;19.00;99.90;;;;;;5048309;28;20051;-56
2023/06/11 02:04:45;;;;;;;17.80;8.10;;;18.90;99.90;;;;;;5047605;28;20045;-58
2023/06/11 02:07:13;;;;;;;22.80;8.65;;;18.90;99.90;;;;;;5044657;28;20040;-57
2023/06/11 02:09:40;;;;;;;17.92;8.50;;;18.80;99.90;;;;;;5048344;28;20121;-57
2023/06/11 02:12:07;;;;;;;17.63;8.60;;;18.80;99.90;;;;;;5047497;28;20041;-58
2023/06/11 02:14:34;;;;;;;20.88;8.88;;;18.80;99.90;;;;;;5047547;28;20053;-57
2023/06/11 02:17:01;;;;;;;20.27;8.85;;;18.80;99.90;;;;;;5029900;28;20056;-58
2023/06/11 02:19:27;;;;;;;23.92;8.98;;;18.80;99.90;;;;;;5049273;28;20052;-56
2023/06/11 02:21:54;;;;;;;21.75;8.60;;;18.80;99.90;;;;;;5048948;28;20044;-57
2023/06/11 02:24:22;;;;;;;16.88;9.25;;;18.70;99.90;;;;;;5047364;28;20057;-57
2023/06/11 02:26:49;;;;;;;19.33;9.32;;;18.60;99.90;;;;;;5030366;28;20060;-56
2023/06/11 02:29:15;;;;;;;19.33;7.95;;;18.60;99.90;;;;;;5044748;28;20067;-60
2023/06/11 02:31:42;;;;;;;21.95;8.70;;;18.60;99.90;;;;;;5049355;28;20041;-56
2023/06/11 02:34:09;;;;;;;24.08;7.35;;;18.60;99.90;;;;;;5047793;28;20098;-57
2023/06/11 02:36:36;;;;;;;22.67;9.65;;;18.50;99.90;;;;;;5030380;28;20049;-59
2023/06/11 02:39:04;;;;;;;16.63;8.80;;;18.50;99.90;;;;;;5047922;28;20492;-59
2023/06/11 02:41:31;;;;;;;14.38;7.05;;;18.50;99.90;;;;;;5047713;28;20111;-56
2023/06/11 02:43:57;;;;;;;18.80;9.40;;;18.50;99.90;;;;;;5047117;28;20063;-55
2023/06/11 02:46:24;;;;;;;20.80;7.70;;;18.40;99.90;;;;;;5047508;28;20063;-56
2023/06/11 02:48:51;;;;;;;14.45;7.72;;;18.30;99.90;;;;;;5047579;28;20116;-56
2023/06/11 02:51:18;;;;;;;18.55;9.20;;;18.20;99.90;;;;;;5047829;28;20056;-56
2023/06/11 02:53:45;;;;;;;15.65;7.72;;;18.10;99.90;;;;;;5043525;28;20528;-58
2023/06/11 02:56:12;;;;;;;15.23;7.95;;;18.10;99.90;;;;;;5047828;28;20041;-58
2023/06/11 02:58:38;;;;;;;13.88;7.78;;;18.20;99.90;;;;;;5047069;28;20056;-57
2023/06/11 03:01:05;;;;;;;15.77;8.27;;;18.10;99.90;;;;;;5047989;28;20053;-57
2023/06/11 03:03:32;;;;;;;15.07;7.93;;;18.10;99.90;;;;;;5046867;28;20466;-57
2023/06/11 03:05:59;;;;;;;21.67;9.32;;;18.00;99.90;;;;;;5045352;28;20047;-57
2023/06/11 03:08:27;;;;;;;16.23;7.72;;;18.00;99.90;;;;;;5046943;28;20049;-56
2023/06/11 03:10:54;;;;;;;20.60;9.65;;;18.00;99.90;;;;;;5053605;28;20045;-58
2023/06/11 03:13:21;;;;;;;20.75;9.02;;;17.90;99.90;;;;;;5056659;28;20049;-57
2023/06/11 03:15:48;;;;;;;15.57;8.27;;;17.90;99.90;;;;;;5051188;28;20045;-58
2023/06/11 03:18:15;;;;;;;15.68;8.93;;;18.00;99.90;;;;;;5047741;28;20049;-57
2023/06/11 03:20:42;;;;;;;20.73;8.40;;;18.00;99.90;;;;;;5050541;28;20045;-59
2023/06/11 03:23:10;;;;;;;19.75;9.40;;;17.90;99.90;;;;;;5062840;28;20131;-58
2023/06/11 03:25:37;;;;;;;22.80;9.57;;;17.90;99.90;;;;;;5050502;28;20049;-54
2023/06/11 03:28:04;;;;;;;17.70;8.75;;;17.90;99.90;;;;;;5050017;28;20045;-57
2023/06/11 03:30:31;;;;;;;19.73;9.10;;;17.90;99.90;;;;;;5051778;28;20147;-59
2023/06/11 03:32:58;;;;;;;13.55;7.90;;;18.00;99.90;;;;;;5051939;28;20045;-58
2023/06/11 03:35:24;;;;;;;20.30;8.75;;;17.90;99.90;;;;;;5050629;28;20499;-58
2023/06/11 03:37:51;;;;;;;20.00;8.07;;;17.70;99.90;;;;;;5051137;28;20055;-61
2023/06/11 03:40:18;;;;;;;19.38;9.38;;;17.60;99.90;;;;;;5050737;28;20045;-55
2023/06/11 03:42:45;;;;;;;16.65;7.78;;;17.60;99.90;;;;;;5050838;28;20060;-55
2023/06/11 03:45:12;;;;;;;20.67;9.02;;;17.60;99.90;;;;;;5049989;28;20045;-58
2023/06/11 03:47:39;;;;;;;14.65;7.57;;;17.60;99.90;;;;;;5050914;28;20191;-56
2023/06/11 03:50:07;;;;;;;16.23;8.60;;;17.50;99.90;;;;;;5032438;28;20522;-58
2023/06/11 03:52:34;;;;;;;13.88;7.68;;;17.60;99.90;;;;;;5049727;28;20044;-58
2023/06/11 03:55:00;;;;;;;18.02;7.10;;;17.60;99.90;;;;;;5049031;28;20048;-57
2023/06/11 03:57:27;;;;;;;19.98;8.90;;;17.60;99.90;;;;;;5050302;28;20045;-57
2023/06/11 03:59:54;;;;;;;16.40;9.00;;;17.50;99.90;;;;;;5050258;28;20128;-57
2023/06/11 04:02:21;;;;;;;14.93;7.60;;;17.40;99.90;;;;;;5029282;28;20053;-57
2023/06/11 04:04:48;;;;;;;19.30;8.65;;;17.50;99.90;;;;;;5047874;28;20055;-58
2023/06/11 04:07:15;;;;;;;22.38;7.57;;;17.50;99.90;;;;;;5050154;28;20041;-56
2023/06/11 04:09:42;;;;;;;15.20;7.70;;;17.60;99.90;;;;;;5050178;28;20059;-58
2023/06/11 04:12:09;;;;;;;16.75;8.27;;;17.50;99.90;;;;;;5050055;28;20045;-59
2023/06/11 04:14:36;;;;;;;13.68;7.85;;;17.40;99.90;;;;;;5049802;28;20049;-58
2023/06/11 04:17:03;;;;;;;14.32;7.45;;;17.50;99.90;;;;;;5050025;28;20055;-57
2023/06/11 04:19:30;;;;;;;13.27;7.47;;;17.60;99.90;;;;;;5049761;28;20509;-57
2023/06/11 04:21:56;;;;;;;16.98;7.35;;;17.50;99.90;;;;;;5049761;28;20064;-56
2023/06/11 04:24:23;;;;;;;24.20;8.93;;;17.50;99.90;;;;;;5049985;28;20053;-57
2023/06/11 04:26:51;;;;;;;15.32;7.85;;;17.50;99.90;;;;;;5046417;28;20079;-57
2023/06/11 04:29:18;;;;;;;17.83;7.80;;;17.50;99.90;;;;;;5050502;28;20052;-56
2023/06/11 04:31:47;;;;;;;18.77;8.70;;;17.40;99.90;;;;;;5049720;28;20052;-56
2023/06/11 04:34:16;;;;;;;15.93;7.82;;;17.40;99.90;;;;;;5050173;28;20053;-57
2023/06/11 04:36:44;;;;;;;16.65;9.10;;;17.50;99.90;;;;;;5049467;28;20037;-57
2023/06/11 04:39:10;;;;;;;24.33;9.65;;;17.50;99.90;;;;;;5048747;28;20060;-57
2023/06/11 04:41:37;;;;;;;20.90;9.52;;;17.50;99.90;;;;;;5048877;28;20084;-57
2023/06/11 04:44:04;;;;;;;15.90;7.80;;;17.60;99.90;;;;;;5049247;28;20049;-57
2023/06/11 04:46:34;;;;;;;19.33;8.15;;;17.60;99.90;;;;;;5049469;28;20049;-57
2023/06/11 04:49:04;;;;;;;17.63;7.75;;;17.60;99.90;;;;;;5049887;28;20087;-57
2023/06/11 04:51:32;;;;;;;15.40;7.80;;;17.60;99.90;;;;;;5049468;28;20059;-57
2023/06/11 04:54:07;;;;;;;16.45;8.05;;;17.60;99.90;;;;;;5049357;28;20052;-56
2023/06/11 04:56:34;;;;;;;14.10;7.88;;;17.60;99.90;;;;;;5048858;28;20110;-58
2023/06/11 04:59:05;;;;;;;17.45;8.32;;;17.70;99.90;;;;;;5049693;28;20049;-55
2023/06/11 05:01:32;;;;;;;18.48;8.25;;;17.70;99.90;;;;;;5048609;28;20060;-53
2023/06/11 05:03:59;;;;;;;20.80;8.73;;;17.70;99.90;;;;;;5049072;28;20090;-57
2023/06/11 05:06:27;;;;;;;18.90;7.95;;;17.80;99.90;;;;;;5049523;28;20052;-58
2023/06/11 05:08:54;;;;;;;16.92;8.48;;;17.70;99.90;;;;;;5049281;28;20087;-57
2023/06/11 05:11:21;;;;;;;21.90;8.30;;;17.80;99.90;;;;;;5049014;28;20049;-58
2023/06/11 05:13:55;;;;;;;18.90;8.55;;;17.80;99.90;;;;;;5048904;28;20053;-59
2023/06/11 05:16:22;;;;;;;25.60;8.48;;;17.80;99.90;;;;;;5031333;28;20088;-59
2023/06/11 05:18:49;;;;;;;21.02;10.13;;;17.80;99.90;;;;;;5049059;28;20053;-59
2023/06/11 05:21:16;;;;;;;20.58;10.43;;;17.90;99.90;;;;;;5048978;28;20067;-57
2023/06/11 05:23:43;;;;;;;17.08;9.00;;;17.90;99.90;;;;;;5048464;28;20041;-57
2023/06/11 05:26:13;;;;;;;17.50;8.63;;;17.90;99.90;;;;;;5048905;28;20392;-57
2023/06/11 05:28:40;;;;;;;17.83;8.38;;;17.90;99.90;;;;;;5048730;28;20049;-57
2023/06/11 05:31:09;;;;;;;20.25;8.77;;;18.00;99.90;;;;;;5046220;28;20076;-59
2023/06/11 05:33:36;;;;;;;18.30;9.63;;;18.00;99.90;;;;;;5048142;28;20045;-58
2023/06/11 05:36:04;;;;;;;23.33;9.45;;;18.10;99.90;;;;;;5048674;28;20049;-57
2023/06/11 05:38:31;;;;;;;23.02;8.02;;;18.10;99.90;;;;;;5047177;28;20045;-58
2023/06/11 05:40:58;;;;;;;17.88;9.45;;;18.10;99.90;;;;;;5048927;28;20087;-58
2023/06/11 05:43:25;;;;;;;20.48;8.85;;;18.20;99.90;;;;;;5048019;28;20499;-59
2023/06/11 05:45:52;;;;;;;16.33;7.85;;;18.30;99.90;;;;;;5048071;28;20423;-58
2023/06/11 05:48:20;;;;;;;20.75;8.90;;;18.30;99.90;;;;;;5048305;28;20060;-58
2023/06/11 05:50:47;;;;;;;16.60;8.75;;;18.30;99.90;;;;;;5048360;28;20067;-58
2023/06/11 05:53:14;;;;;;;23.10;10.07;;;18.40;99.90;;;;;;4695814;28;9999973;-58
2023/06/11 05:55:41;;;;;;;19.17;9.20;;;18.50;99.90;;;;;;5043382;28;20057;-58
2023/06/11 05:58:08;;;;;;;18.80;8.68;;;18.60;99.90;;;;;;5045527;28;20070;-58
2023/06/11 06:00:35;;;;;;;27.48;9.07;;;18.70;99.90;;;;;;5045252;28;20134;-58
2023/06/11 06:03:03;;;;;;;20.02;9.27;;;18.80;99.90;;;;;;5046525;28;20053;-59
2023/06/11 06:05:31;;;;;;;15.27;8.68;;;18.80;99.90;;;;;;5046038;28;20085;-58
2023/06/11 06:07:58;;;;;;;19.55;8.05;;;18.90;99.90;;;;;;5045436;28;20714;-59
2023/06/11 06:10:24;;;;;;;16.10;7.93;;;19.00;99.90;;;;;;5045140;28;20478;-59
2023/06/11 06:12:51;;;;;;;21.13;7.50;;;19.10;99.90;;;;;;5043918;28;20045;-58
2023/06/11 06:15:18;;;;;;;15.30;7.32;;;19.20;99.90;;;;;;5043713;28;20068;-59
2023/06/11 06:17:45;;;;;;;23.02;7.85;;;19.20;99.90;;;;;;5044913;28;20076;-56
2023/06/11 06:20:12;;;;;;;17.67;7.55;;;19.30;99.90;;;;;;5044543;28;20053;-58
2023/06/11 06:22:39;;;;;;;22.30;7.93;;;19.40;99.90;;;;;;5044749;28;20748;-59
2023/06/11 06:25:06;;;;;;;14.45;7.85;;;19.40;99.90;;;;;;5027129;28;20048;-56
2023/06/11 06:27:33;;;;;;;18.98;8.00;;;19.50;99.90;;;;;;5044491;28;20462;-56
2023/06/11 06:30:01;;;;;;;19.17;7.43;;;19.50;99.90;;;;;;5043451;28;20064;-58
2023/06/11 06:32:28;;;;;;;30.05;8.63;;;19.60;99.90;;;;;;5044564;28;20052;-58
2023/06/11 06:34:55;;;;;;;16.52;7.75;;;19.80;99.90;;;;;;5044444;28;20135;-58
2023/06/11 06:37:24;;;;;;;20.33;8.07;;;19.80;99.90;;;;;;5043646;28;20053;-58
2023/06/11 06:39:51;;;;;;;18.83;7.82;;;19.90;99.90;;;;;;5044332;28;20507;-58
2023/06/11 06:42:17;;;;;;;27.77;7.85;;;19.90;99.90;;;;;;5044329;28;20108;-58
2023/06/11 06:44:44;;;;;;;15.50;7.47;;;20.00;99.90;;;;;;5050176;28;20052;-56
2023/06/11 06:47:14;;;;;;;23.52;7.22;;;20.00;99.90;;;;;;5033042;28;20455;-59
2023/06/11 06:49:41;;;;;;;18.88;7.85;;;20.10;99.90;;;;;;5037169;28;20424;-58
2023/06/11 06:52:11;;;;;;;16.63;8.07;;;20.20;99.90;;;;;;5044936;28;20044;-59
2023/06/11 06:54:38;;;;;;;16.40;6.88;;;20.30;99.90;;;;;;5051001;28;20084;-60
2023/06/11 06:57:09;;;;;;;17.65;7.60;;;20.40;99.90;;;;;;5049494;28;20052;-58
2023/06/11 06:59:36;;;;;;;22.40;7.50;;;20.50;99.90;;;;;;5050897;28;20160;-58
2023/06/11 07:02:03;;;;;;;20.73;7.80;;;20.60;99.90;;;;;;5050803;28;20110;-59
2023/06/11 07:04:33;;;;;;;19.88;7.07;;;20.60;99.90;;;;;;5050251;28;20061;-58
2023/06/11 07:07:00;;;;;;;23.65;8.07;;;20.60;99.90;;;;;;5049520;28;20045;-58
2023/06/11 07:09:27;;;;;;;24.60;7.93;;;20.70;99.90;;;;;;5051081;28;20056;-59
2023/06/11 07:11:54;;;;;;;18.02;7.35;;;20.80;99.90;;;;;;5050087;28;20052;-60
2023/06/11 07:14:21;;;;;;;22.58;7.95;;;20.90;99.90;;;;;;5051198;28;20130;-61
2023/06/11 07:16:48;;;;;;;19.27;7.07;;;20.90;99.90;;;;;;5050693;28;20057;-58
2023/06/11 07:19:16;;;;;;;16.73;6.90;;;21.10;99.90;;;;;;5051163;28;20049;-57
2023/06/11 07:21:42;;;;;;;18.90;7.45;;;21.10;99.90;;;;;;5050779;28;20177;-57
2023/06/11 07:24:09;;;;;;;13.70;6.38;;;21.20;99.90;;;;;;5050708;28;20040;-59
2023/06/11 07:26:36;;;;;;;12.70;6.43;;;21.30;99.90;;;;;;5050257;28;20554;-56
2023/06/11 07:29:03;;;;;;;20.10;7.65;;;21.40;99.90;;;;;;5050304;28;20040;-59
2023/06/11 07:31:30;;;;;;;14.35;6.20;;;21.50;99.90;;;;;;5055432;28;20049;-58
2023/06/11 07:33:57;;;;;;;19.67;6.88;;;21.60;99.90;;;;;;5050650;28;20052;-58
2023/06/11 07:36:24;;;;;;;12.52;6.40;;;21.60;99.90;;;;;;5051009;28;20044;-58
2023/06/11 07:38:51;;;;;;;13.60;6.13;;;21.70;99.90;;;;;;5051065;28;20045;-59
2023/06/11 07:41:18;;;;;;;19.98;6.68;;;21.80;99.90;;;;;;5049832;28;20056;-59
2023/06/11 07:43:45;;;;;;;17.52;7.40;;;21.90;99.90;;;;;;5050102;28;20482;-60
2023/06/11 07:46:14;;;;;;;15.80;6.47;;;22.00;99.90;;;;;;5050635;28;20052;-60
2023/06/11 07:48:41;;;;;;;17.05;6.95;;;22.10;99.90;;;;;;5050644;28;20049;-60
2023/06/11 07:51:08;;;;;;;20.33;6.38;;;22.20;99.90;;;;;;5050679;28;20045;-60
2023/06/11 07:53:40;;;;;;;19.63;7.15;;;22.30;99.90;;;;;;5048523;28;20143;-60
2023/06/11 07:56:10;;;;;;;14.32;8.02;;;22.40;99.90;;;;;;5045222;28;20057;-57
2023/06/11 07:58:37;;;;;;;26.58;8.40;;;22.50;99.90;;;;;;5047455;28;20049;-58
2023/06/11 08:01:03;;;;;;;26.48;9.70;;;22.60;99.90;;;;;;5047480;28;20063;-58
2023/06/11 08:03:31;;;;;;;17.35;8.18;;;22.60;99.90;;;;;;5045133;28;20049;-58
2023/06/11 08:05:58;;;;;;;16.98;7.20;;;22.60;99.90;;;;;;5047944;28;20048;-58
2023/06/11 08:08:25;;;;;;;14.93;7.38;;;22.70;99.90;;;;;;5046953;28;20049;-61
2023/06/11 08:10:52;;;;;;;16.27;7.35;;;22.60;99.90;;;;;;5047377;28;20056;-59
2023/06/11 08:13:21;;;;;;;23.20;8.35;;;22.70;99.90;;;;;;5045003;28;20056;-59
2023/06/11 08:15:49;;;;;;;20.73;8.00;;;22.70;99.90;;;;;;5046564;28;20112;-58
2023/06/11 08:18:15;;;;;;;20.67;9.23;;;22.70;99.90;;;;;;5014072;28;20060;-58
2023/06/11 08:20:46;;;;;;;19.00;8.00;;;22.80;99.90;;;;;;5042368;28;20078;-58
2023/06/11 08:23:13;;;;;;;17.80;9.40;;;22.90;99.90;;;;;;5035741;28;20049;-59
2023/06/11 08:25:40;;;;;;;24.02;7.90;;;23.00;99.90;;;;;;5042497;28;20106;-56
2023/06/11 08:28:37;;;;;;;16.90;9.02;;;23.00;99.90;;;;;;5035894;28;20039;-58
2023/06/11 08:31:05;;;;;;;24.40;9.32;;;23.10;99.90;;;;;;5045469;28;20055;-58
2023/06/11 08:33:33;;;;;;;15.35;8.32;;;23.20;99.90;;;;;;5049104;28;20044;-59
2023/06/11 08:36:00;;;;;;;19.70;9.40;;;23.30;99.90;;;;;;5044444;28;20539;-59
2023/06/11 08:38:28;;;;;;;20.42;7.63;;;23.30;99.90;;;;;;5047316;28;20048;-60
2023/06/11 08:40:55;;;;;;;18.23;7.90;;;23.30;99.90;;;;;;5046595;28;20540;-60
2023/06/11 08:43:21;;;;;;;24.52;7.43;;;23.50;99.90;;;;;;5044661;28;20061;-59
2023/06/11 08:45:48;;;;;;;18.30;8.38;;;23.60;99.90;;;;;;5045432;28;20057;-60
2023/06/11 08:48:18;;;;;;;19.77;8.48;;;23.70;99.90;;;;;;5045443;28;20067;-59
2023/06/11 08:50:46;;;;;;;23.73;8.93;;;23.70;99.90;;;;;;5045137;28;20068;-60
2023/06/11 08:53:13;;;;;;;15.88;7.82;;;23.80;99.90;;;;;;5017010;28;20057;-60
2023/06/11 08:55:41;;;;;;;19.75;7.80;;;23.80;99.90;;;;;;5044652;28;20056;-58
2023/06/11 08:58:08;;;;;;;20.33;9.65;;;23.90;99.90;;;;;;5041739;28;20053;-59
2023/06/11 09:00:38;;;;;;;19.75;8.45;;;24.00;99.90;;;;;;5026709;28;20045;-59
2023/06/11 09:03:05;;;;;;;25.08;8.63;;;24.20;99.90;;;;;;5045917;28;20382;-59
2023/06/11 09:05:32;;;;;;;19.27;7.05;;;24.30;99.90;;;;;;5045324;28;20052;-59
2023/06/11 09:07:59;;;;;;;19.73;8.23;;;24.40;99.90;;;;;;5035221;28;20487;-59
2023/06/11 09:10:26;;;;;;;19.35;8.02;;;24.50;99.90;;;;;;5045657;28;20041;-59
2023/06/11 09:12:54;;;;;;;16.92;7.50;;;24.60;99.90;;;;;;5045786;28;20045;-59
2023/06/11 09:15:24;;;;;;;12.63;7.00;;;24.70;99.90;;;;;;5045080;28;20469;-59
2023/06/11 09:17:51;;;;;;;19.35;7.35;;;24.70;99.90;;;;;;5045159;28;20049;-60
2023/06/11 09:20:18;;;;;;;12.95;7.30;;;24.80;99.90;;;;;;5044801;28;20055;-59
2023/06/11 09:22:46;;;;;;;12.60;7.70;;;24.80;99.90;;;;;;5045756;28;20419;-58
2023/06/11 09:25:16;;;;;;;14.82;8.02;;;25.00;99.90;;;;;;5045414;28;20049;-60
2023/06/11 09:27:45;;;;;;;17.63;8.15;;;25.10;99.90;;;;;;5043838;28;20136;-60
2023/06/11 09:30:15;;;;;;;16.38;7.50;;;25.30;99.90;;;;;;5043027;28;20048;-59
2023/06/11 09:32:44;;;;;;;13.73;7.13;;;25.40;99.90;;;;;;5018112;28;20110;-58
2023/06/11 09:35:13;;;;;;;12.60;7.72;;;25.50;99.90;;;;;;5017195;28;20137;-59
2023/06/11 09:37:41;;;;;;;15.90;8.23;;;25.60;99.90;;;;;;5035611;28;20056;-57
2023/06/11 09:40:14;;;;;;;16.20;7.30;;;25.80;99.90;;;;;;5037701;28;20049;-57
2023/06/11 09:42:46;;;;;;;15.82;8.10;;;25.90;99.90;;;;;;5038284;28;20061;-59
2023/06/11 09:45:13;;;;;;;14.77;6.22;;;26.00;99.90;;;;;;5037244;28;20500;-58
2023/06/11 09:47:40;;;;;;;17.83;6.65;;;26.20;99.90;;;;;;5038483;28;20045;-59
2023/06/11 09:50:08;;;;;;;15.90;8.45;;;26.40;99.90;;;;;;5034787;28;20126;-59
2023/06/11 09:52:35;;;;;;;15.73;7.13;;;26.50;99.90;;;;;;5039733;28;20052;-59
2023/06/11 09:55:03;;;;;;;19.67;7.25;;;26.50;99.90;;;;;;5033344;28;20072;-59
2023/06/11 09:57:31;;;;;;;11.90;7.30;;;26.60;99.70;;;;;;5042729;28;20132;-60
2023/06/11 09:59:58;;;;;;;15.93;7.53;;;26.80;99.70;;;;;;5045526;28;20053;-59
2023/06/11 10:02:25;;;;;;;13.27;6.72;;;27.00;99.40;;;;;;5044802;28;20056;-60
2023/06/11 10:04:52;;;;;;;19.40;7.25;;;27.20;99.30;;;;;;5038070;28;20408;-59
2023/06/11 10:07:19;;;;;;;12.93;7.63;;;27.30;98.80;;;;;;5036651;28;20045;-60
2023/06/11 10:09:46;;;;;;;13.93;7.28;;;27.40;98.20;;;;;;5036962;28;20048;-60
2023/06/11 10:12:15;;;;;;;13.25;6.82;;;27.40;97.90;;;;;;5017868;28;20362;-61
2023/06/11 10:14:50;;;;;;;13.52;6.60;;;27.50;97.90;;;;;;5036001;28;20045;-60
2023/06/11 10:17:17;;;;;;;19.52;8.20;;;27.50;96.90;;;;;;5040453;28;20037;-60
2023/06/11 10:19:49;;;;;;;14.30;7.28;;;27.60;97.30;;;;;;5053744;28;20088;-60
2023/06/11 10:22:36;;;;;;;11.68;7.05;;;27.70;96.90;;;;;;5044370;28;20083;-59
2023/06/11 10:25:04;;;;;;;11.23;5.85;;;28.00;96.70;;;;;;5042077;28;20155;-60
2023/06/11 10:27:38;;;;;;;15.75;8.27;;;28.20;97.00;;;;;;5038048;28;20059;-61
2023/06/11 10:30:08;;;;;;;13.82;7.03;;;28.50;95.70;;;;;;5034756;28;20049;-58
2023/06/11 10:32:46;;;;;;;14.35;6.82;;;28.70;95.10;;;;;;5037084;28;20393;-56
2023/06/11 10:35:20;;;;;;;19.10;7.65;;;29.10;95.70;;;;;;5018387;28;20160;-62
2023/06/11 10:37:47;;;;;;;12.35;7.35;;;29.70;95.10;;;;;;5025060;28;20049;-59
2023/06/11 10:40:14;;;;;;;13.77;7.97;;;29.90;93.30;;;;;;5038977;28;20094;-58
2023/06/11 10:42:50;;;;;;;12.02;6.93;;;30.00;93.80;;;;;;5032479;28;20148;-59
2023/06/11 10:45:17;;;;;;;12.25;5.95;;;30.30;93.20;;;;;;5023684;28;20108;-60
2023/06/11 10:47:45;;;;;;;14.55;6.38;;;30.70;92.90;;;;;;5034226;28;20060;-58
2023/06/11 10:50:14;;;;;;;11.02;6.75;;;31.00;91.20;;;;;;5035532;28;20132;-59
2023/06/11 10:52:58;;;;;;;9.85;5.93;;;31.20;91.10;;;;;;5039529;28;20075;-59
2023/06/11 10:55:26;;;;;;;9.20;6.38;;;31.00;89.20;;;;;;5034238;28;20080;-58
2023/06/11 10:57:53;;;;;;;14.82;7.18;;;30.90;90.70;;;;;;5036716;28;20067;-60
2023/06/11 11:00:20;;;;;;;12.60;6.80;;;30.40;90.00;;;;;;5039454;28;20711;-62
2023/06/11 11:02:53;;;;;;;11.23;6.30;;;30.30;90.00;;;;;;5022680;28;20057;-58
2023/06/11 11:05:22;;;;;;;11.25;6.40;;;30.30;89.50;;;;;;5034425;28;20058;-59
2023/06/11 11:07:49;;;;;;;15.27;6.80;;;30.40;90.20;;;;;;5018849;28;20119;-59
2023/06/11 11:10:19;;;;;;;11.05;6.20;;;30.40;90.00;;;;;;5038103;28;20057;-59
2023/06/11 11:12:46;;;;;;;11.18;7.07;;;30.30;88.80;;;;;;5032348;28;20049;-58
2023/06/11 11:15:14;;;;;;;12.82;7.03;;;30.00;88.20;;;;;;5039101;28;20048;-59
2023/06/11 11:17:41;;;;;;;13.30;6.50;;;29.80;88.30;;;;;;5033432;28;20048;-59
2023/06/11 11:20:19;;;;;;;9.85;6.50;;;29.70;88.50;;;;;;5035935;28;20050;-59
2023/06/11 11:22:54;;;;;;;9.35;6.88;;;29.60;88.80;;;;;;5034943;28;20051;-60
2023/06/11 11:25:24;;;;;;;9.73;6.97;;;29.70;88.40;;;;;;5037376;28;20071;-58
2023/06/11 11:27:51;;;;;;;13.35;7.47;;;29.70;88.90;;;;;;5034828;28;20048;-59
2023/06/11 11:30:18;;;;;;;9.30;5.90;;;29.80;88.50;;;;;;5039262;28;20063;-60
2023/06/11 11:32:45;;;;;;;10.07;6.00;;;29.80;88.70;;;;;;5023412;28;20114;-60
2023/06/11 11:35:16;;;;;;;15.93;7.10;;;29.90;87.90;;;;;;5038613;28;20064;-60
2023/06/11 11:37:47;;;;;;;9.95;6.30;;;29.90;87.10;;;;;;5017167;28;20471;-58
2023/06/11 11:40:17;;;;;;;10.68;6.05;;;29.90;87.30;;;;;;5039630;28;20056;-58
2023/06/11 11:42:50;;;;;;;14.82;7.10;;;29.90;87.60;;;;;;5041564;28;20516;-59
2023/06/11 11:45:17;;;;;;;14.32;7.15;;;30.00;85.40;;;;;;5046663;28;20513;-59
2023/06/11 11:47:52;;;;;;;16.77;5.93;;;29.90;86.40;;;;;;5044685;28;20056;-59
2023/06/11 11:50:22;;;;;;;10.80;6.28;;;30.00;86.20;;;;;;5044397;28;20415;-58
2023/06/11 11:53:03;;;;;;;15.82;7.30;;;30.00;85.90;;;;;;5039869;28;20087;-60
2023/06/11 11:55:37;;;;;;;15.80;6.53;;;29.90;84.00;;;;;;5039983;28;20055;-59
2023/06/11 11:58:22;;;;;;;16.23;6.88;;;29.80;84.50;;;;;;5042835;28;20053;-59
2023/06/11 12:00:53;;;;;;;7.50;5.80;;;29.80;85.20;;;;;;5037923;28;20048;-60
2023/06/11 12:03:21;;;;;;;17.23;6.63;;;30.00;84.90;;;;;;5021981;28;20072;-61
2023/06/11 12:05:58;;;;;;;13.38;6.10;;;30.20;85.10;;;;;;5045420;28;20139;-59
2023/06/11 12:08:26;;;;;;;13.43;6.50;;;30.40;84.50;;;;;;5039735;28;20049;-59
2023/06/11 12:10:53;;;;;;;13.13;6.10;;;30.40;84.60;;;;;;5042527;28;20056;-60
2023/06/11 12:13:20;;;;;;;16.88;6.53;;;30.40;84.80;;;;;;5045348;28;20061;-58
2023/06/11 12:15:48;;;;;;;10.80;6.28;;;30.50;83.80;;;;;;5046328;28;20072;-59
2023/06/11 12:18:15;;;;;;;10.32;6.43;;;30.50;82.90;;;;;;5045001;28;20187;-60
2023/06/11 12:20:42;;;;;;;12.18;6.00;;;30.60;82.90;;;;;;5031522;28;20569;-60
2023/06/11 12:23:08;;;;;;;8.93;5.30;;;30.60;82.50;;;;;;5041112;28;20049;-59
2023/06/11 12:25:35;;;;;;;13.07;7.65;;;30.60;82.20;;;;;;5037719;28;20049;-59
2023/06/11 12:28:03;;;;;;;12.80;6.82;;;30.70;82.10;;;;;;5042556;28;20048;-59
2023/06/11 12:30:30;;;;;;;8.38;5.80;;;30.80;81.70;;;;;;5039706;28;20060;-58
2023/06/11 12:32:57;;;;;;;8.60;5.20;;;30.80;81.20;;;;;;5044020;28;20492;-59
2023/06/11 12:35:26;;;;;;;8.68;5.60;;;30.90;81.30;;;;;;5032839;28;20049;-59
2023/06/11 12:37:55;;;;;;;7.45;5.45;;;30.90;81.50;;;;;;5042324;28;20148;-60
2023/06/11 12:40:23;;;;;;;10.00;5.85;;;31.10;81.50;;;;;;5035739;28;20052;-59
2023/06/11 12:42:56;;;;;;;8.50;5.75;;;31.10;81.80;;;;;;5037647;28;20057;-57